Time;durP1;ratioP1;P1;durP2;ratioP2;P2;SDS_P1;SDS_P2;PMS_P1;PMS_P2;Temp;Humidity;BMP_temperature;BMP_pressure;BME280_temperature;BME280_humidity;BME280_pressure;Samples;Min_cycle;Max_cycle;Signal;HPM_P1;HPM_P2
2022/02/28 00:02:00;;;;;;;68.65;27.85;;;;;;;;;;5013275;28;20030;-69
2022/02/28 00:04:26;;;;;;;70.97;28.88;;;;;;;;;;5013030;28;20064;-69
2022/02/28 00:06:53;;;;;;;71.78;29.52;;;;;;;;;;5013323;28;20030;-69
2022/02/28 00:09:19;;;;;;;71.10;28.98;;;;;;;;;;5013161;28;20038;-68
2022/02/28 00:11:45;;;;;;;73.13;29.38;;;;;;;;;;5013316;28;20026;-69
2022/02/28 00:14:11;;;;;;;64.32;30.27;;;;;;;;;;4996592;28;20555;-69
2022/02/28 00:16:37;;;;;;;70.80;29.10;;;;;;;;;;4975862;28;20045;-69
2022/02/28 00:19:03;;;;;;;72.20;30.17;;;;;;;;;;4993706;28;20088;-69
2022/02/28 00:21:29;;;;;;;67.70;28.83;;;;;;;;;;4993265;28;20335;-69
2022/02/28 00:23:56;;;;;;;67.22;27.83;;;;;;;;;;5000359;28;20109;-69
2022/02/28 00:26:22;;;;;;;66.05;29.02;;;;;;;;;;5012558;28;20021;-71
2022/02/28 00:28:48;;;;;;;70.65;29.83;;;;;;;;;;5012715;28;20080;-69
2022/02/28 00:31:14;;;;;;;64.63;29.48;;;;;;;;;;5012645;28;20050;-68
2022/02/28 00:33:40;;;;;;;64.20;29.45;;;;;;;;;;5012512;28;20033;-69
2022/02/28 00:36:06;;;;;;;60.28;26.13;;;;;;;;;;4995182;28;20022;-69
2022/02/28 00:38:32;;;;;;;67.55;26.92;;;;;;;;;;5012610;28;20033;-69
2022/02/28 00:40:58;;;;;;;60.10;26.65;;;;;;;;;;5004886;28;20042;-71
2022/02/28 00:43:25;;;;;;;67.88;28.00;;;;;;;;;;5008639;28;20130;-68
2022/02/28 00:45:51;;;;;;;65.47;26.85;;;;;;;;;;5011668;28;20056;-68
2022/02/28 00:48:17;;;;;;;69.18;29.30;;;;;;;;;;5011686;28;20542;-69
2022/02/28 00:50:43;;;;;;;63.80;28.27;;;;;;;;;;5011603;28;20034;-69
2022/02/28 00:53:09;;;;;;;65.25;29.80;;;;;;;;;;5012108;28;20022;-68
2022/02/28 00:55:35;;;;;;;64.50;28.92;;;;;;;;;;5012458;28;20025;-69
2022/02/28 00:58:01;;;;;;;61.42;27.83;;;;;;;;;;5012084;28;20041;-68
2022/02/28 01:00:27;;;;;;;74.18;30.40;;;;;;;;;;5012623;28;20021;-69
2022/02/28 01:02:53;;;;;;;68.13;30.30;;;;;;;;;;4994290;28;20037;-70
2022/02/28 01:05:19;;;;;;;75.07;30.48;;;;;;;;;;5012627;28;20025;-70
2022/02/28 01:07:46;;;;;;;68.32;27.45;;;;;;;;;;5012144;28;20527;-68
2022/02/28 01:10:13;;;;;;;63.90;26.95;;;;;;;;;;5011809;28;20113;-69
2022/02/28 01:12:39;;;;;;;64.65;26.92;;;;;;;;;;5011853;28;20468;-68
2022/02/28 01:15:07;;;;;;;65.22;27.65;;;;;;;;;;5012003;28;20030;-68
2022/02/28 01:17:33;;;;;;;65.40;27.88;;;;;;;;;;5012043;28;20515;-69
2022/02/28 01:19:59;;;;;;;64.95;27.15;;;;;;;;;;5012181;28;20309;-69
2022/02/28 01:22:25;;;;;;;69.45;29.70;;;;;;;;;;5011885;28;20041;-69
2022/02/28 01:24:51;;;;;;;57.33;27.52;;;;;;;;;;5011948;28;20044;-69
2022/02/28 01:27:17;;;;;;;59.13;26.52;;;;;;;;;;5011969;28;20034;-69
2022/02/28 01:29:43;;;;;;;55.33;25.08;;;;;;;;;;5011861;28;20368;-68
2022/02/28 01:32:09;;;;;;;63.72;28.95;;;;;;;;;;5011789;28;20144;-66
2022/02/28 01:34:35;;;;;;;57.92;25.83;;;;;;;;;;5011820;28;20061;-68
2022/02/28 01:37:01;;;;;;;57.50;26.42;;;;;;;;;;5011866;28;20080;-70
2022/02/28 01:39:27;;;;;;;64.72;28.73;;;;;;;;;;4994152;28;20029;-70
2022/02/28 01:41:54;;;;;;;65.50;28.45;;;;;;;;;;5011392;28;20030;-69
2022/02/28 01:44:19;;;;;;;61.72;26.50;;;;;;;;;;5011432;28;20030;-68
2022/02/28 01:46:45;;;;;;;57.72;26.63;;;;;;;;;;5011549;28;20088;-69
2022/02/28 01:49:11;;;;;;;63.90;29.30;;;;;;;;;;4994008;28;20036;-70
2022/02/28 01:51:38;;;;;;;68.28;29.15;;;;;;;;;;5011538;28;20026;-68
2022/02/28 01:54:05;;;;;;;65.55;28.20;;;;;;;;;;5011405;28;20112;-69
2022/02/28 01:56:31;;;;;;;66.40;29.35;;;;;;;;;;5011489;28;20033;-70
2022/02/28 01:58:57;;;;;;;62.72;27.95;;;;;;;;;;5011549;28;20037;-68
2022/02/28 02:01:23;;;;;;;60.45;28.17;;;;;;;;;;5011728;28;20064;-70
2022/02/28 02:03:49;;;;;;;64.20;27.75;;;;;;;;;;5011243;28;20062;-71
2022/02/28 02:06:15;;;;;;;57.33;27.45;;;;;;;;;;5011624;28;20030;-72
2022/02/28 02:08:41;;;;;;;52.88;27.33;;;;;;;;;;5011401;28;20041;-71
2022/02/28 02:11:08;;;;;;;63.15;27.85;;;;;;;;;;5011290;28;20378;-71
2022/02/28 02:13:34;;;;;;;60.03;26.83;;;;;;;;;;5011342;28;20030;-69
2022/02/28 02:16:01;;;;;;;56.40;26.42;;;;;;;;;;5011397;28;20022;-70
2022/02/28 02:18:27;;;;;;;58.53;28.02;;;;;;;;;;5011503;28;20076;-71
2022/02/28 02:20:53;;;;;;;57.25;27.58;;;;;;;;;;5011488;28;20026;-69
2022/02/28 02:23:20;;;;;;;59.58;27.67;;;;;;;;;;5014287;28;20053;-69
2022/02/28 02:25:47;;;;;;;52.75;24.92;;;;;;;;;;5014806;28;20427;-67
2022/02/28 02:28:14;;;;;;;54.40;25.80;;;;;;;;;;5014791;28;20391;-68
2022/02/28 02:30:41;;;;;;;54.55;25.95;;;;;;;;;;5014886;28;20484;-69
2022/02/28 02:33:07;;;;;;;56.78;25.42;;;;;;;;;;4999508;28;20034;-69
2022/02/28 02:35:33;;;;;;;60.05;27.92;;;;;;;;;;4995461;28;20025;-68
2022/02/28 02:37:59;;;;;;;58.38;28.00;;;;;;;;;;4995226;28;20049;-69
2022/02/28 02:40:25;;;;;;;57.50;27.92;;;;;;;;;;4995146;28;20034;-68
2022/02/28 02:42:52;;;;;;;59.53;27.98;;;;;;;;;;4995166;28;20068;-68
2022/02/28 02:45:18;;;;;;;53.00;25.23;;;;;;;;;;4995501;28;20029;-70
2022/02/28 02:47:44;;;;;;;55.88;26.52;;;;;;;;;;4995214;28;20026;-67
2022/02/28 02:50:10;;;;;;;55.65;27.70;;;;;;;;;;4994950;28;20247;-68
2022/02/28 02:52:36;;;;;;;55.60;25.38;;;;;;;;;;4994955;28;20068;-68
2022/02/28 02:55:02;;;;;;;54.92;25.90;;;;;;;;;;4994663;28;20100;-68
2022/02/28 02:57:28;;;;;;;56.60;25.35;;;;;;;;;;4995055;28;20455;-69
2022/02/28 02:59:54;;;;;;;54.33;26.30;;;;;;;;;;4995072;28;20109;-69
2022/02/28 03:02:20;;;;;;;54.22;26.65;;;;;;;;;;4995009;28;20042;-71
2022/02/28 03:04:46;;;;;;;53.85;26.67;;;;;;;;;;4994859;28;20153;-67
2022/02/28 03:07:19;;;;;;;49.88;24.90;;;;;;;;;;4995210;28;20334;-69
2022/02/28 03:09:45;;;;;;;62.42;27.75;;;;;;;;;;4994759;28;20065;-69
2022/02/28 03:12:12;;;;;;;56.22;26.77;;;;;;;;;;4994701;28;20030;-70
2022/02/28 03:14:38;;;;;;;56.35;26.17;;;;;;;;;;4994460;28;20026;-70
2022/02/28 03:17:04;;;;;;;51.47;24.40;;;;;;;;;;4977054;28;20031;-66
2022/02/28 03:19:30;;;;;;;54.58;26.13;;;;;;;;;;4994330;28;20058;-67
2022/02/28 03:21:56;;;;;;;53.33;26.13;;;;;;;;;;4993954;28;20057;-67
2022/02/28 03:24:22;;;;;;;58.03;26.08;;;;;;;;;;4994084;28;20496;-68
2022/02/28 03:26:48;;;;;;;59.40;27.98;;;;;;;;;;4994285;28;20389;-68
2022/02/28 03:29:14;;;;;;;57.30;28.67;;;;;;;;;;4994126;28;20031;-68
2022/02/28 03:31:40;;;;;;;57.65;26.05;;;;;;;;;;4979918;28;20060;-66
2022/02/28 03:34:06;;;;;;;52.17;25.95;;;;;;;;;;5013418;28;20032;-68
2022/02/28 03:36:32;;;;;;;58.28;26.15;;;;;;;;;;5013843;28;20021;-68
2022/02/28 03:38:58;;;;;;;58.50;25.75;;;;;;;;;;4996273;28;20377;-68
2022/02/28 03:41:24;;;;;;;56.45;27.02;;;;;;;;;;5038830;22;20480;-71
2022/02/28 03:43:50;;;;;;;55.28;26.38;;;;;;;;;;5052437;28;20036;-70
2022/02/28 03:46:16;;;;;;;55.92;26.50;;;;;;;;;;5052978;28;20032;-70
2022/02/28 03:48:42;;;;;;;64.30;27.38;;;;;;;;;;5053031;28;20021;-71
2022/02/28 03:51:09;;;;;;;55.20;27.10;;;;;;;;;;5053033;28;20555;-71
2022/02/28 03:53:35;;;;;;;71.63;30.13;;;;;;;;;;5052766;28;20574;-70
2022/02/28 03:56:01;;;;;;;59.13;25.95;;;;;;;;;;5053133;28;20025;-69
2022/02/28 03:58:27;;;;;;;64.55;30.00;;;;;;;;;;5053316;28;20044;-70
2022/02/28 04:00:53;;;;;;;57.42;27.05;;;;;;;;;;5052840;28;20033;-71
2022/02/28 04:03:19;;;;;;;61.08;27.02;;;;;;;;;;5052733;28;20033;-71
2022/02/28 04:05:45;;;;;;;62.30;29.20;;;;;;;;;;5052799;28;20439;-70
2022/02/28 04:08:11;;;;;;;55.55;25.60;;;;;;;;;;5052940;28;20025;-70
2022/02/28 04:10:37;;;;;;;63.95;27.27;;;;;;;;;;5052928;28;20025;-70
2022/02/28 04:13:03;;;;;;;58.47;26.05;;;;;;;;;;5052978;28;20388;-70
2022/02/28 04:15:29;;;;;;;58.85;26.63;;;;;;;;;;5052787;28;20518;-70
2022/02/28 04:17:55;;;;;;;56.88;26.20;;;;;;;;;;5052677;28;20029;-70
2022/02/28 04:20:21;;;;;;;59.72;25.27;;;;;;;;;;5034876;28;20037;-70
2022/02/28 04:22:47;;;;;;;53.78;25.73;;;;;;;;;;5041086;28;20029;-70
2022/02/28 04:25:13;;;;;;;57.22;25.70;;;;;;;;;;5031616;28;20095;-70
2022/02/28 04:27:39;;;;;;;53.50;25.58;;;;;;;;;;5030915;28;20029;-70
2022/02/28 04:30:05;;;;;;;51.92;24.30;;;;;;;;;;5031647;28;20030;-72
2022/02/28 04:32:32;;;;;;;48.33;23.38;;;;;;;;;;5043175;28;20041;-71
2022/02/28 04:34:58;;;;;;;51.20;24.88;;;;;;;;;;5052548;28;20409;-72
2022/02/28 04:37:24;;;;;;;50.03;25.08;;;;;;;;;;5034499;28;20036;-71
2022/02/28 04:39:50;;;;;;;56.03;25.13;;;;;;;;;;5052432;28;20041;-71
2022/02/28 04:42:16;;;;;;;57.80;27.67;;;;;;;;;;5052222;28;20040;-72
2022/02/28 04:44:42;;;;;;;51.25;24.58;;;;;;;;;;5051408;28;20087;-71
2022/02/28 04:47:08;;;;;;;50.78;24.10;;;;;;;;;;5052182;28;20029;-71
2022/02/28 04:49:34;;;;;;;52.80;24.50;;;;;;;;;;5034183;28;20036;-71
2022/02/28 04:52:00;;;;;;;55.53;25.88;;;;;;;;;;5052110;28;20029;-71
2022/02/28 04:54:26;;;;;;;53.85;25.58;;;;;;;;;;5052007;28;20032;-72
2022/02/28 04:56:52;;;;;;;56.83;25.02;;;;;;;;;;5052152;28;20104;-70
2022/02/28 04:59:17;;;;;;;62.17;25.75;;;;;;;;;;5052049;28;20040;-70
2022/02/28 05:01:43;;;;;;;57.45;26.52;;;;;;;;;;5033938;28;20028;-71
2022/02/28 05:04:09;;;;;;;62.47;27.40;;;;;;;;;;5051551;28;20029;-71
2022/02/28 05:06:36;;;;;;;60.45;26.63;;;;;;;;;;5052021;28;20163;-70
2022/02/28 05:09:02;;;;;;;65.93;29.10;;;;;;;;;;5052054;28;20032;-70
2022/02/28 05:11:28;;;;;;;66.40;28.33;;;;;;;;;;5051873;28;20036;-70
2022/02/28 05:13:54;;;;;;;62.85;26.70;;;;;;;;;;5052091;28;20021;-70
2022/02/28 05:16:20;;;;;;;63.53;27.88;;;;;;;;;;5052926;28;20028;-72
2022/02/28 05:18:45;;;;;;;59.72;24.77;;;;;;;;;;5051673;28;20403;-70
2022/02/28 05:21:13;;;;;;;59.17;25.45;;;;;;;;;;5052751;28;20025;-70
2022/02/28 05:23:39;;;;;;;60.63;27.88;;;;;;;;;;5050046;28;20037;-70
2022/02/28 05:26:05;;;;;;;61.35;26.00;;;;;;;;;;5031797;28;20058;-69
2022/02/28 05:28:31;;;;;;;55.85;25.63;;;;;;;;;;5049693;28;20037;-70
2022/02/28 05:30:57;;;;;;;48.67;23.02;;;;;;;;;;5049131;28;20036;-70
2022/02/28 05:33:23;;;;;;;51.95;22.90;;;;;;;;;;5049524;28;20033;-71
2022/02/28 05:35:49;;;;;;;58.25;25.23;;;;;;;;;;5051491;28;20398;-71
2022/02/28 05:38:15;;;;;;;52.75;23.52;;;;;;;;;;5033996;28;20467;-71
2022/02/28 05:40:41;;;;;;;59.05;27.30;;;;;;;;;;5052220;28;20459;-70
2022/02/28 05:43:07;;;;;;;55.15;24.35;;;;;;;;;;5053501;28;20079;-71
2022/02/28 05:45:35;;;;;;;58.05;25.95;;;;;;;;;;5054084;28;20029;-71
2022/02/28 05:48:03;;;;;;;56.17;25.05;;;;;;;;;;5053295;28;20051;-70
2022/02/28 05:50:29;;;;;;;58.45;25.85;;;;;;;;;;5052132;28;20037;-71
2022/02/28 05:52:55;;;;;;;60.15;26.75;;;;;;;;;;5051930;28;20461;-70
2022/02/28 05:55:21;;;;;;;62.47;25.63;;;;;;;;;;5051951;28;20025;-71
2022/02/28 05:57:48;;;;;;;63.58;25.83;;;;;;;;;;5054264;28;20399;-71
2022/02/28 06:00:15;;;;;;;60.90;25.42;;;;;;;;;;5055160;28;20034;-71
2022/02/28 06:02:41;;;;;;;66.25;26.98;;;;;;;;;;5055187;28;20033;-71
2022/02/28 06:05:07;;;;;;;65.45;27.05;;;;;;;;;;5055184;28;20036;-70
2022/02/28 06:07:33;;;;;;;71.70;34.90;;;;;;;;;;5055451;28;20032;-71
2022/02/28 06:09:59;;;;;;;75.45;32.13;;;;;;;;;;5037268;28;20040;-72
2022/02/28 06:12:25;;;;;;;65.00;28.13;;;;;;;;;;5055265;28;20025;-73
2022/02/28 06:14:51;;;;;;;71.20;28.65;;;;;;;;;;5054966;28;20024;-69
2022/02/28 06:17:17;;;;;;;64.00;26.98;;;;;;;;;;5055262;28;20120;-71
2022/02/28 06:19:43;;;;;;;65.82;27.92;;;;;;;;;;5055248;28;20025;-71
2022/02/28 06:22:09;;;;;;;62.78;26.27;;;;;;;;;;5055097;28;20048;-71
2022/02/28 06:24:35;;;;;;;70.13;26.67;;;;;;;;;;5054762;28;20033;-71
2022/02/28 06:27:00;;;;;;;63.28;25.73;;;;;;;;;;5054714;28;20090;-71
2022/02/28 06:29:26;;;;;;;59.35;24.70;;;;;;;;;;5054656;28;20029;-70
2022/02/28 06:31:52;;;;;;;61.20;25.80;;;;;;;;;;5049336;28;20028;-72
2022/02/28 06:34:18;;;;;;;63.15;25.50;;;;;;;;;;5034727;28;20086;-71
2022/02/28 06:36:44;;;;;;;62.53;26.70;;;;;;;;;;5033295;28;20120;-72
2022/02/28 06:39:10;;;;;;;57.95;26.95;;;;;;;;;;5033485;28;20041;-71
2022/02/28 06:41:37;;;;;;;58.13;25.17;;;;;;;;;;5033284;28;20045;-72
2022/02/28 06:44:03;;;;;;;54.78;24.90;;;;;;;;;;5014132;28;20048;-72
2022/02/28 06:46:29;;;;;;;61.33;26.42;;;;;;;;;;5033115;28;20040;-72
2022/02/28 06:48:55;;;;;;;63.78;25.58;;;;;;;;;;5033083;28;20482;-72
2022/02/28 06:51:21;;;;;;;58.25;25.02;;;;;;;;;;5034432;28;20027;-71
2022/02/28 06:53:47;;;;;;;61.13;25.50;;;;;;;;;;5034342;28;20113;-71
2022/02/28 06:56:13;;;;;;;56.05;25.23;;;;;;;;;;5034389;28;20108;-73
2022/02/28 06:58:39;;;;;;;62.45;27.55;;;;;;;;;;5016077;28;20056;-71
2022/02/28 07:01:06;;;;;;;57.45;25.83;;;;;;;;;;5034312;28;20036;-71
2022/02/28 07:03:32;;;;;;;52.45;23.38;;;;;;;;;;5034263;28;20025;-71
2022/02/28 07:05:59;;;;;;;58.20;24.20;;;;;;;;;;5033846;28;20067;-71
2022/02/28 07:08:26;;;;;;;51.47;24.33;;;;;;;;;;5032923;28;20438;-71
2022/02/28 07:10:52;;;;;;;43.03;21.98;;;;;;;;;;5034075;28;20082;-71
2022/02/28 07:13:19;;;;;;;54.03;24.05;;;;;;;;;;5033414;28;20109;-71
2022/02/28 07:15:46;;;;;;;49.22;21.35;;;;;;;;;;5033667;28;20021;-70
2022/02/28 07:18:12;;;;;;;40.15;20.17;;;;;;;;;;5015629;28;20017;-71
2022/02/28 07:20:38;;;;;;;41.30;20.83;;;;;;;;;;5033590;28;20036;-71
2022/02/28 07:23:05;;;;;;;49.47;21.98;;;;;;;;;;5033641;28;20025;-71
2022/02/28 07:25:31;;;;;;;49.03;22.38;;;;;;;;;;5034139;28;20030;-71
2022/02/28 07:27:58;;;;;;;35.63;18.27;;;;;;;;;;5033498;28;20036;-71
2022/02/28 07:30:25;;;;;;;35.22;16.02;;;;;;;;;;5033346;28;20029;-72
2022/02/28 07:32:51;;;;;;;35.28;16.70;;;;;;;;;;5046429;28;20027;-71
2022/02/28 07:35:17;;;;;;;42.95;19.60;;;;;;;;;;5054221;28;20087;-72
2022/02/28 07:37:43;;;;;;;37.88;18.90;;;;;;;;;;5053917;28;20475;-71
2022/02/28 07:40:09;;;;;;;35.63;19.42;;;;;;;;;;5053446;28;20032;-72
2022/02/28 07:42:36;;;;;;;35.55;17.25;;;;;;;;;;5053827;28;20066;-70
2022/02/28 07:45:02;;;;;;;34.40;17.25;;;;;;;;;;5053187;28;20433;-71
2022/02/28 07:47:28;;;;;;;39.08;17.30;;;;;;;;;;5053212;28;20479;-71
2022/02/28 07:49:54;;;;;;;31.75;16.73;;;;;;;;;;5035177;28;20032;-71
2022/02/28 07:52:20;;;;;;;34.33;17.58;;;;;;;;;;5053102;28;20028;-73
2022/02/28 07:54:46;;;;;;;36.63;17.33;;;;;;;;;;5045306;28;20417;-76
2022/02/28 07:57:12;;;;;;;36.20;17.50;;;;;;;;;;5040525;28;20074;-74
2022/02/28 07:59:38;;;;;;;37.03;18.30;;;;;;;;;;5035328;28;20241;-76
2022/02/28 08:02:04;;;;;;;27.52;15.88;;;;;;;;;;5053031;28;20390;-76
2022/02/28 08:04:30;;;;;;;34.42;16.20;;;;;;;;;;5035146;28;20029;-74
2022/02/28 08:06:56;;;;;;;31.23;15.82;;;;;;;;;;5053540;28;20032;-76
2022/02/28 08:09:24;;;;;;;34.55;16.23;;;;;;;;;;5052979;28;20071;-74
2022/02/28 08:11:50;;;;;;;32.65;14.50;;;;;;;;;;5052870;28;20025;-75
2022/02/28 08:14:16;;;;;;;35.80;16.45;;;;;;;;;;5052629;28;20029;-75
2022/02/28 08:16:42;;;;;;;32.90;16.17;;;;;;;;;;5052734;28;20051;-75
2022/02/28 08:19:08;;;;;;;38.97;19.52;;;;;;;;;;5052277;28;20109;-76
2022/02/28 08:21:34;;;;;;;30.58;15.32;;;;;;;;;;5052886;28;20111;-73
2022/02/28 08:24:00;;;;;;;30.00;15.32;;;;;;;;;;5052893;28;20052;-74
2022/02/28 08:26:26;;;;;;;28.25;13.85;;;;;;;;;;5035116;28;20082;-76
2022/02/28 08:28:52;;;;;;;30.65;15.25;;;;;;;;;;5053082;28;20090;-74
2022/02/28 08:31:18;;;;;;;26.20;14.48;;;;;;;;;;5052478;28;20021;-71
2022/02/28 08:33:44;;;;;;;35.15;16.58;;;;;;;;;;5052253;28;20348;-76
2022/02/28 08:36:10;;;;;;;42.40;22.40;;;;;;;;;;5034497;28;20110;-73
2022/02/28 08:38:36;;;;;;;47.75;25.42;;;;;;;;;;5052008;28;20029;-73
2022/02/28 08:41:02;;;;;;;49.40;25.42;;;;;;;;;;5051831;28;20036;-72
2022/02/28 08:43:28;;;;;;;34.70;21.63;;;;;;;;;;5052045;28;20035;-76
2022/02/28 08:45:54;;;;;;;34.88;19.42;;;;;;;;;;5052360;28;20479;-73
2022/02/28 08:48:20;;;;;;;37.50;21.10;;;;;;;;;;5052006;28;20017;-74
2022/02/28 08:50:46;;;;;;;94.22;49.88;;;;;;;;;;5052332;28;20028;-77
2022/02/28 08:53:12;;;;;;;36.00;19.33;;;;;;;;;;5051959;28;20024;-77
2022/02/28 08:55:38;;;;;;;30.90;15.77;;;;;;;;;;5052378;28;20051;-73
2022/02/28 08:58:05;;;;;;;33.10;17.33;;;;;;;;;;5052155;28;20021;-74
2022/02/28 09:00:31;;;;;;;48.35;24.80;;;;;;;;;;5051913;28;20032;-73
2022/02/28 09:02:56;;;;;;;46.00;22.10;;;;;;;;;;5052152;28;20024;-74
2022/02/28 09:05:23;;;;;;;36.28;19.65;;;;;;;;;;5051870;28;20060;-72
2022/02/28 09:07:49;;;;;;;35.95;20.27;;;;;;;;;;5051549;28;20056;-71
2022/02/28 09:10:15;;;;;;;28.45;15.65;;;;;;;;;;5052012;28;20025;-72
2022/02/28 09:12:41;;;;;;;32.85;18.70;;;;;;;;;;5051807;28;20025;-73
2022/02/28 09:15:07;;;;;;;37.75;20.02;;;;;;;;;;5051786;28;20028;-74
2022/02/28 09:17:34;;;;;;;37.42;20.63;;;;;;;;;;5051934;28;20028;-72
2022/02/28 09:20:00;;;;;;;28.65;15.70;;;;;;;;;;5051417;28;20026;-73
2022/02/28 09:22:26;;;;;;;27.15;15.35;;;;;;;;;;5051540;28;20040;-76
2022/02/28 09:24:52;;;;;;;27.92;15.15;;;;;;;;;;5033436;28;20028;-77
2022/02/28 09:27:18;;;;;;;25.45;13.95;;;;;;;;;;5051829;28;20098;-78
2022/02/28 09:29:45;;;;;;;29.90;16.88;;;;;;;;;;5053109;28;20032;-77
2022/02/28 09:32:11;;;;;;;28.27;14.98;;;;;;;;;;5057069;28;20524;-78
2022/02/28 09:34:37;;;;;;;25.55;12.85;;;;;;;;;;5057959;28;20044;-78
2022/02/28 09:37:03;;;;;;;25.40;14.48;;;;;;;;;;5058275;28;20032;-77
2022/02/28 09:39:29;;;;;;;26.17;14.77;;;;;;;;;;5059423;28;20021;-79
2022/02/28 09:41:57;;;;;;;26.73;14.80;;;;;;;;;;5071369;22;20071;-72
2022/02/28 09:44:23;;;;;;;42.88;21.48;;;;;;;;;;5039075;28;20483;-72
2022/02/28 09:46:51;;;;;;;36.30;19.23;;;;;;;;;;5058150;28;20027;-72
2022/02/28 09:49:17;;;;;;;47.72;23.88;;;;;;;;;;5058939;28;20032;-75
2022/02/28 09:51:43;;;;;;;26.45;14.68;;;;;;;;;;5064060;28;20020;-73
2022/02/28 09:54:09;;;;;;;29.10;15.75;;;;;;;;;;5060045;28;20111;-77
2022/02/28 09:56:35;;;;;;;32.45;15.93;;;;;;;;;;5077792;28;20481;-72
2022/02/28 09:59:01;;;;;;;64.53;30.85;;;;;;;;;;5077684;28;20040;-71
2022/02/28 10:01:27;;;;;;;58.03;25.70;;;;;;;;;;5075978;28;20042;-69
2022/02/28 10:03:53;;;;;;;28.13;14.32;;;;;;;;;;5076217;28;20036;-67
2022/02/28 10:06:19;;;;;;;28.25;14.52;;;;;;;;;;5077892;28;20024;-68
2022/02/28 10:08:50;;;;;;;27.50;15.15;;;;;;;;;;5077936;28;20051;-69
2022/02/28 10:11:25;;;;;;;28.77;14.85;;;;;;;;;;5078059;28;20428;-68
2022/02/28 10:13:55;;;;;;;27.50;14.05;;;;;;;;;;5077473;28;20025;-67
2022/02/28 10:16:40;;;;;;;44.00;21.70;;;;;;;;;;5077746;28;20103;-68
2022/02/28 10:19:12;;;;;;;26.73;13.32;;;;;;;;;;5077741;28;20028;-67
2022/02/28 10:21:41;;;;;;;28.55;13.88;;;;;;;;;;5077597;28;20028;-68
2022/02/28 10:24:08;;;;;;;37.60;19.42;;;;;;;;;;5077473;28;20100;-70
2022/02/28 10:26:38;;;;;;;30.77;15.32;;;;;;;;;;5077647;28;20075;-68
2022/02/28 10:29:04;;;;;;;37.05;18.40;;;;;;;;;;5077384;28;20037;-68
2022/02/28 10:31:35;;;;;;;25.02;12.70;;;;;;;;;;5077832;28;20100;-66
2022/02/28 10:34:10;;;;;;;21.30;11.98;;;;;;;;;;5077311;28;20020;-68
2022/02/28 10:36:36;;;;;;;41.55;18.77;;;;;;;;;;5059510;28;20431;-67
2022/02/28 10:39:07;;;;;;;23.90;14.23;;;;;;;;;;5077473;28;20028;-67
2022/02/28 10:41:38;;;;;;;21.00;11.85;;;;;;;;;;5077031;28;20024;-68
2022/02/28 10:44:05;;;;;;;28.25;13.85;;;;;;;;;;5073496;28;20036;-67
2022/02/28 10:46:32;;;;;;;27.63;13.52;;;;;;;;;;5074132;28;20438;-67
2022/02/28 10:48:58;;;;;;;29.77;13.57;;;;;;;;;;5074656;28;20109;-67
2022/02/28 10:51:24;;;;;;;22.13;11.90;;;;;;;;;;5074483;28;20057;-69
2022/02/28 10:54:09;;;;;;;44.53;22.10;;;;;;;;;;5073664;28;20032;-70
2022/02/28 10:56:53;;;;;;;28.40;13.40;;;;;;;;;;5073976;28;20024;-69
2022/02/28 10:59:19;;;;;;;21.15;11.05;;;;;;;;;;5074106;28;20021;-69
2022/02/28 11:01:45;;;;;;;22.73;11.52;;;;;;;;;;5074065;28;20056;-69
2022/02/28 11:04:11;;;;;;;39.13;18.02;;;;;;;;;;5073692;28;20090;-69
2022/02/28 11:06:38;;;;;;;23.35;11.10;;;;;;;;;;5074855;28;20099;-69
2022/02/28 11:09:05;;;;;;;27.88;12.48;;;;;;;;;;5075217;28;20598;-69
2022/02/28 11:11:32;;;;;;;22.55;12.18;;;;;;;;;;5073669;28;20024;-67
2022/02/28 11:13:58;;;;;;;24.70;14.20;;;;;;;;;;5073257;28;20536;-68
2022/02/28 11:16:25;;;;;;;58.42;27.10;;;;;;;;;;5074349;28;20104;-66
2022/02/28 11:18:52;;;;;;;32.50;14.90;;;;;;;;;;5074111;28;20098;-69
2022/02/28 11:21:18;;;;;;;21.58;11.65;;;;;;;;;;5074091;28;20028;-68
2022/02/28 11:23:45;;;;;;;41.83;19.80;;;;;;;;;;5073729;28;20078;-67
2022/02/28 11:26:11;;;;;;;43.60;21.38;;;;;;;;;;5073825;28;20039;-69
2022/02/28 11:28:37;;;;;;;44.72;22.45;;;;;;;;;;5072905;28;20033;-69
2022/02/28 11:31:04;;;;;;;27.48;14.82;;;;;;;;;;5073200;28;20032;-69
2022/02/28 11:33:30;;;;;;;21.70;11.05;;;;;;;;;;5073201;28;20028;-68
2022/02/28 11:35:57;;;;;;;22.45;12.45;;;;;;;;;;5073351;28;20051;-69
2022/02/28 11:38:23;;;;;;;29.50;13.68;;;;;;;;;;5073354;28;20482;-69
2022/02/28 11:40:53;;;;;;;23.65;11.05;;;;;;;;;;5073276;28;20035;-68
2022/02/28 11:43:22;;;;;;;56.40;26.55;;;;;;;;;;5072484;28;20028;-69
2022/02/28 11:45:55;;;;;;;35.80;17.10;;;;;;;;;;5055202;28;20024;-70
2022/02/28 11:48:27;;;;;;;29.13;14.13;;;;;;;;;;5073303;28;20035;-69
2022/02/28 11:50:53;;;;;;;19.58;10.90;;;;;;;;;;5073443;28;20084;-69
2022/02/28 11:53:38;;;;;;;30.00;14.02;;;;;;;;;;5073122;28;20040;-68
2022/02/28 11:56:18;;;;;;;26.00;10.35;;;;;;;;;;5073047;28;20016;-77
2022/02/28 11:58:48;;;;;;;20.25;10.77;;;;;;;;;;5073483;28;20478;-68
2022/02/28 12:01:14;;;;;;;19.77;8.57;;;;;;;;;;5073126;28;20071;-69
2022/02/28 12:03:49;;;;;;;15.15;8.63;;;;;;;;;;5073547;28;20406;-68
2022/02/28 12:06:33;;;;;;;18.48;8.57;;;;;;;;;;5073252;28;20170;-68
2022/02/28 12:08:59;;;;;;;16.20;8.43;;;;;;;;;;5073108;28;20028;-67
2022/02/28 12:11:29;;;;;;;19.67;9.95;;;;;;;;;;5072555;28;20497;-66
2022/02/28 12:14:00;;;;;;;14.07;8.13;;;;;;;;;;5054165;28;20031;-68
2022/02/28 12:19:34;;;;;;;23.67;11.05;;;;;;;;;;5072338;28;20142;-68
2022/02/28 12:22:01;;;;;;;17.30;7.72;;;;;;;;;;5071990;28;20498;-68
2022/02/28 12:24:45;;;;;;;14.27;7.55;;;;;;;;;;5071823;28;20071;-68
2022/02/28 12:27:12;;;;;;;14.32;7.78;;;;;;;;;;5072134;28;20044;-70
2022/02/28 12:29:38;;;;;;;14.15;6.97;;;;;;;;;;5071973;28;20032;-67
2022/02/28 12:32:04;;;;;;;13.50;6.88;;;;;;;;;;5054023;28;20029;-67
2022/02/28 12:34:34;;;;;;;12.50;7.05;;;;;;;;;;5054002;28;20070;-68
2022/02/28 12:37:01;;;;;;;14.63;6.53;;;;;;;;;;5072270;28;20440;-68
2022/02/28 12:39:27;;;;;;;15.02;6.65;;;;;;;;;;5072490;28;20168;-68
2022/02/28 12:41:56;;;;;;;15.38;6.88;;;;;;;;;;5072020;28;20045;-68
2022/02/28 12:44:22;;;;;;;12.27;6.47;;;;;;;;;;5071861;28;20486;-68
2022/02/28 12:46:49;;;;;;;16.00;7.30;;;;;;;;;;5072260;28;20025;-68
2022/02/28 12:49:17;;;;;;;11.88;6.70;;;;;;;;;;5071980;28;20054;-70
2022/02/28 12:51:44;;;;;;;11.13;5.90;;;;;;;;;;5072084;28;20028;-68
2022/02/28 12:54:14;;;;;;;11.38;6.40;;;;;;;;;;5072137;28;20486;-68
2022/02/28 12:56:54;;;;;;;10.85;6.38;;;;;;;;;;5071889;28;20024;-68
2022/02/28 12:59:21;;;;;;;13.43;6.28;;;;;;;;;;5071762;28;20031;-69
2022/02/28 13:01:47;;;;;;;16.10;7.32;;;;;;;;;;5072092;28;20063;-69
2022/02/28 13:04:14;;;;;;;14.27;5.93;;;;;;;;;;5071547;28;20053;-69
2022/02/28 13:06:41;;;;;;;14.82;6.97;;;;;;;;;;5071420;28;20501;-70
2022/02/28 13:09:10;;;;;;;13.32;6.50;;;;;;;;;;5053718;28;20093;-69
2022/02/28 13:11:37;;;;;;;10.48;6.05;;;;;;;;;;5071655;28;20025;-70
2022/02/28 13:14:07;;;;;;;10.40;6.40;;;;;;;;;;5071497;28;20020;-69
2022/02/28 13:16:36;;;;;;;11.43;5.53;;;;;;;;;;5053514;28;20047;-69
2022/02/28 13:19:07;;;;;;;11.23;5.65;;;;;;;;;;5071662;28;20044;-70
2022/02/28 13:21:33;;;;;;;;;;;;;;;;;;5071709;28;20032;-69
2022/02/28 13:24:00;;;;;;;11.55;5.00;;;;;;;;;;5071311;28;19905;-68
2022/02/28 13:26:26;;;;;;;9.70;5.30;;;;;;;;;;5071972;28;20070;-72
2022/02/28 13:28:52;;;;;;;11.18;6.18;;;;;;;;;;5071507;28;20024;-67
2022/02/28 13:31:18;;;;;;;11.13;5.90;;;;;;;;;;5071483;28;20116;-67
2022/02/28 13:33:45;;;;;;;10.90;5.50;;;;;;;;;;5071203;28;20391;-72
2022/02/28 13:36:11;;;;;;;10.60;5.65;;;;;;;;;;5071300;28;20070;-69
2022/02/28 13:38:37;;;;;;;9.23;4.45;;;;;;;;;;5071254;28;20028;-69
2022/02/28 13:41:08;;;;;;;9.35;4.63;;;;;;;;;;5070824;28;20024;-68
2022/02/28 13:43:34;;;;;;;10.02;4.68;;;;;;;;;;5071199;28;20028;-68
2022/02/28 13:46:01;;;;;;;8.82;4.88;;;;;;;;;;5071465;28;20424;-68
2022/02/28 13:48:31;;;;;;;9.00;4.45;;;;;;;;;;5053388;28;20082;-68
2022/02/28 13:50:58;;;;;;;9.98;5.25;;;;;;;;;;5071487;28;20036;-70
2022/02/28 13:53:25;;;;;;;10.63;4.68;;;;;;;;;;5070913;28;20088;-66
2022/02/28 13:55:52;;;;;;;7.88;4.57;;;;;;;;;;5071205;28;20071;-67
2022/02/28 13:58:25;;;;;;;12.13;4.78;;;;;;;;;;5071191;28;20505;-67
2022/02/28 14:00:53;;;;;;;6.43;3.95;;;;;;;;;;5070784;28;20028;-69
2022/02/28 14:03:24;;;;;;;8.93;4.50;;;;;;;;;;5070757;28;20099;-67
2022/02/28 14:05:51;;;;;;;7.20;3.97;;;;;;;;;;5071050;28;20048;-69
2022/02/28 14:08:18;;;;;;;7.65;4.43;;;;;;;;;;5071233;28;20039;-68
2022/02/28 14:10:48;;;;;;;9.13;4.55;;;;;;;;;;5070672;28;20482;-68
2022/02/28 14:13:21;;;;;;;9.70;4.90;;;;;;;;;;5070324;28;20036;-69
2022/02/28 14:15:49;;;;;;;10.95;5.90;;;;;;;;;;5052730;28;20364;-67
2022/02/28 14:18:16;;;;;;;9.57;5.45;;;;;;;;;;5072999;28;20031;-66
2022/02/28 14:20:42;;;;;;;10.40;4.38;;;;;;;;;;5074485;28;20029;-67
2022/02/28 14:23:12;;;;;;;11.20;5.22;;;;;;;;;;5074356;28;20023;-69